Time;durP1;ratioP1;P1;durP2;ratioP2;P2;SDS_P1;SDS_P2;PMS_P1;PMS_P2;Temp;Humidity;BMP_temperature;BMP_pressure;BME280_temperature;BME280_humidity;BME280_pressure;Samples;Min_cycle;Max_cycle;Signal;HPM_P1;HPM_P2
2021/09/26 00:02:26;;;;;;;11.20;5.40;;;;;;;13.62;89.47;100975.86;112769;1190;60960;-83
2021/09/26 00:04:53;;;;;;;8.00;4.90;;;;;;;13.61;89.32;100978.11;112784;1190;71058;-83
2021/09/26 00:07:19;;;;;;;10.10;5.30;;;;;;;13.60;89.23;100979.16;112601;1190;71741;-81
2021/09/26 00:09:46;;;;;;;10.00;5.10;;;;;;;13.57;88.97;100976.83;112713;1190;61128;-82
2021/09/26 00:12:12;;;;;;;9.90;4.90;;;;;;;13.55;89.00;100978.04;112715;1190;60988;-83
2021/09/26 00:14:39;;;;;;;8.30;5.60;;;;;;;13.50;89.08;100975.96;112689;1193;61004;-82
2021/09/26 00:17:06;;;;;;;10.40;6.10;;;;;;;13.47;89.00;100979.75;112696;1190;62000;-83
2021/09/26 00:19:32;;;;;;;8.30;5.30;;;;;;;13.44;89.02;100978.11;112618;1192;74000;-83
2021/09/26 00:21:59;;;;;;;7.60;5.10;;;;;;;13.40;88.93;100977.04;112643;1190;61931;-83
2021/09/26 00:24:25;;;;;;;7.80;4.90;;;;;;;13.36;89.02;100977.80;112622;1191;60997;-83
2021/09/26 00:26:52;;;;;;;8.20;5.00;;;;;;;13.32;89.00;100979.77;112713;1190;75586;-83
2021/09/26 00:29:19;;;;;;;8.60;5.10;;;;;;;13.29;89.31;100982.56;112790;1191;72351;-82
2021/09/26 00:31:45;;;;;;;7.90;4.80;;;;;;;13.25;88.88;100984.12;112910;1193;61116;-82
2021/09/26 00:34:12;;;;;;;8.50;4.60;;;;;;;13.18;88.92;100988.13;112799;1192;63000;-82
2021/09/26 00:36:39;;;;;;;9.30;5.30;;;;;;;13.12;88.76;100986.61;112691;1190;61055;-83
2021/09/26 00:39:05;;;;;;;7.60;5.10;;;;;;;13.07;89.27;100980.89;112715;1190;75685;-82
2021/09/26 00:41:32;;;;;;;10.60;5.00;;;;;;;13.04;89.25;100982.45;112676;1193;70574;-82
2021/09/26 00:43:59;;;;;;;8.10;5.10;;;;;;;13.01;89.26;100985.89;112755;1190;72737;-82
2021/09/26 00:46:26;;;;;;;8.20;4.90;;;;;;;12.97;89.21;100984.98;112757;1193;62981;-82
2021/09/26 00:48:53;;;;;;;6.10;4.10;;;;;;;12.92;89.29;100984.86;112720;1190;61211;-83
2021/09/26 00:51:19;;;;;;;7.20;4.20;;;;;;;12.87;89.43;100984.42;112632;1192;60963;-82
2021/09/26 00:53:47;;;;;;;7.10;4.90;;;;;;;12.82;89.87;100981.07;112729;1190;72048;-82
2021/09/26 00:56:13;;;;;;;7.20;4.90;;;;;;;12.77;89.75;100969.84;112611;1193;72515;-82
2021/09/26 00:58:41;;;;;;;9.90;5.70;;;;;;;12.72;90.13;100966.30;112660;1192;62907;-82
2021/09/26 01:01:07;;;;;;;9.30;5.10;;;;;;;12.69;90.30;100963.14;112779;1190;61061;-81
2021/09/26 01:03:34;;;;;;;7.70;4.50;;;;;;;12.66;90.45;100960.04;112704;1190;75301;-82
2021/09/26 01:06:09;;;;;;;7.20;4.20;;;;;;;12.63;90.68;100956.80;112676;1190;70948;-83
2021/09/26 01:09:08;;;;;;;8.80;5.00;;;;;;;12.62;90.79;100958.91;112750;1190;73699;-83
2021/09/26 01:11:58;;;;;;;7.70;4.80;;;;;;;12.61;90.94;100963.31;112786;1193;62140;-82
2021/09/26 01:14:28;;;;;;;9.50;4.70;;;;;;;12.61;91.25;100961.92;112748;1191;61202;-83
2021/09/26 01:17:15;;;;;;;8.10;4.60;;;;;;;12.62;91.45;100963.34;112813;1191;74569;-82
2021/09/26 01:20:04;;;;;;;7.80;4.40;;;;;;;12.65;91.37;100963.95;112776;1183;70863;-83
2021/09/26 01:22:59;;;;;;;6.90;4.20;;;;;;;12.62;91.00;100969.00;112750;1191;71440;-81
2021/09/26 01:25:33;;;;;;;7.60;4.70;;;;;;;12.56;90.97;100974.22;112766;1193;62046;-82
2021/09/26 01:28:33;;;;;;;7.40;5.10;;;;;;;12.52;91.27;100970.23;112863;1190;62042;-82
2021/09/26 01:31:06;;;;;;;9.80;5.10;;;;;;;12.49;91.30;100974.02;112786;1192;75718;-82
2021/09/26 01:34:03;;;;;;;7.90;5.50;;;;;;;12.47;91.39;100980.92;112826;1190;70984;-83
2021/09/26 01:36:53;;;;;;;7.00;4.60;;;;;;;12.45;91.60;100979.23;112670;1193;72749;-83
2021/09/26 01:39:23;;;;;;;9.10;5.60;;;;;;;12.41;91.46;100977.41;112644;1193;61955;-83
2021/09/26 01:42:07;;;;;;;8.80;5.00;;;;;;;12.39;91.84;100971.58;112788;1192;61027;-83
2021/09/26 01:44:46;;;;;;;8.90;5.80;;;;;;;12.37;91.68;100972.60;112727;1191;75710;-83
2021/09/26 01:47:17;;;;;;;9.80;5.30;;;;;;;12.34;91.90;100971.62;114371;1190;72053;-84
2021/09/26 01:49:51;;;;;;;7.20;4.50;;;;;;;12.34;91.99;100971.27;113854;1190;72742;-84
2021/09/26 01:52:27;;;;;;;6.90;4.80;;;;;;;12.34;91.87;100968.98;113037;1190;61056;-82
2021/09/26 01:54:55;;;;;;;7.70;5.30;;;;;;;12.30;91.59;100965.77;112859;1191;61033;-81
2021/09/26 01:57:23;;;;;;;8.80;4.90;;;;;;;12.27;92.13;100961.27;112731;1190;74333;-84
2021/09/26 01:59:56;;;;;;;8.60;4.20;;;;;;;12.27;92.17;100957.08;112607;1193;71214;-82
2021/09/26 02:02:25;;;;;;;6.90;4.00;;;;;;;12.24;92.32;100954.05;112762;1190;74120;-82
2021/09/26 02:04:59;;;;;;;7.20;4.10;;;;;;;12.20;91.99;100957.30;112752;1190;62013;-83
2021/09/26 02:07:29;;;;;;;7.30;4.20;;;;;;;12.14;91.97;100961.58;112806;1190;61055;-81
2021/09/26 02:09:57;;;;;;;7.30;4.30;;;;;;;12.08;92.22;100956.24;112766;1190;75067;-82
2021/09/26 02:12:27;;;;;;;7.00;4.40;;;;;;;12.06;92.63;100957.20;112743;1190;70978;-81
2021/09/26 02:14:55;;;;;;;6.20;4.00;;;;;;;12.03;92.56;100959.28;112874;1190;75404;-82
2021/09/26 02:17:23;;;;;;;8.20;4.60;;;;;;;12.00;92.52;100959.67;112731;1190;62976;-81
2021/09/26 02:19:50;;;;;;;8.20;4.30;;;;;;;11.97;92.70;100957.55;112986;1192;60940;-84
2021/09/26 02:22:17;;;;;;;8.00;4.30;;;;;;;11.95;93.24;100954.88;112821;1191;76193;-83
2021/09/26 02:24:44;;;;;;;8.30;5.00;;;;;;;11.93;93.00;100958.15;112997;1190;72042;-82
2021/09/26 02:27:11;;;;;;;8.40;4.50;;;;;;;11.88;92.87;100960.00;112832;1190;73883;-85
2021/09/26 02:29:38;;;;;;;10.00;5.20;;;;;;;11.81;92.88;100959.80;112786;1193;62084;-84
2021/09/26 02:32:04;;;;;;;7.00;4.70;;;;;;;11.75;92.94;100961.40;112807;1190;61283;-84
2021/09/26 02:34:31;;;;;;;7.50;4.80;;;;;;;11.71;93.33;100961.19;112929;1184;74663;-82
2021/09/26 02:36:57;;;;;;;8.40;4.90;;;;;;;11.67;93.77;100956.84;112661;1192;69783;-83
2021/09/26 02:39:26;;;;;;;8.60;4.70;;;;;;;11.66;94.05;100958.20;112776;1190;73994;-83
2021/09/26 02:42:17;;;;;;;7.30;4.20;;;;;;;11.64;94.03;100957.75;112864;1193;62591;-82
2021/09/26 02:45:01;;;;;;;9.20;4.70;;;;;;;11.59;94.09;100954.58;113025;1193;61055;-82
2021/09/26 02:47:33;;;;;;;7.60;4.60;;;;;;;11.55;94.22;100948.83;112987;1190;75145;-82
2021/09/26 02:50:00;;;;;;;8.10;4.40;;;;;;;11.51;94.34;100947.00;112804;1190;70981;-83
2021/09/26 02:52:27;;;;;;;6.00;4.30;;;;;;;11.47;94.48;100949.91;112851;1190;72625;-82
2021/09/26 02:54:54;;;;;;;6.50;4.50;;;;;;;11.45;94.98;100945.89;112815;1190;61901;-83
2021/09/26 02:57:23;;;;;;;7.70;4.40;;;;;;;11.45;95.27;100942.95;113008;1191;62081;-83
2021/09/26 02:59:50;;;;;;;7.70;4.80;;;;;;;11.45;95.31;100943.61;112810;1193;74534;-84
2021/09/26 03:02:17;;;;;;;11.00;5.30;;;;;;;11.45;95.22;100935.50;112784;1190;71099;-82
2021/09/26 03:04:45;;;;;;;8.40;4.60;;;;;;;11.44;95.52;100933.05;112733;1192;72771;-83
2021/09/26 03:07:13;;;;;;;9.10;5.30;;;;;;;11.43;95.61;100929.20;113195;1192;61930;-82
2021/09/26 03:09:41;;;;;;;8.40;5.00;;;;;;;11.41;95.02;100927.86;112766;1190;61043;-82
2021/09/26 03:12:16;;;;;;;10.10;5.20;;;;;;;11.37;94.95;100927.32;113205;1192;73569;-83
2021/09/26 03:14:43;;;;;;;9.60;4.80;;;;;;;11.31;94.89;100928.71;112812;1193;72064;-83
2021/09/26 03:17:11;;;;;;;6.90;4.90;;;;;;;11.28;95.14;100924.23;113963;1192;73770;-83
2021/09/26 03:19:38;;;;;;;8.10;4.80;;;;;;;11.28;95.59;100920.22;114785;1190;61624;-82
2021/09/26 03:22:07;;;;;;;7.30;4.70;;;;;;;11.27;95.80;100918.66;114934;1190;60985;-84
2021/09/26 03:24:35;;;;;;;6.90;4.40;;;;;;;11.29;96.10;100916.13;113259;1190;74096;-91
2021/09/26 03:27:03;;;;;;;7.20;4.60;;;;;;;11.30;96.01;100918.31;112761;1193;72189;-86
2021/09/26 03:29:34;;;;;;;8.90;4.60;;;;;;;11.32;96.55;100918.27;112859;1190;72930;-85
2021/09/26 03:32:02;;;;;;;10.50;4.70;;;;;;;11.33;96.12;100917.34;112705;1192;62328;-84
2021/09/26 03:34:28;;;;;;;14.20;6.00;;;;;;;11.33;96.36;100915.38;112613;1192;60918;-83
2021/09/26 03:36:55;;;;;;;7.70;5.50;;;;;;;11.36;96.64;100913.48;112627;1190;75801;-83
2021/09/26 03:39:21;;;;;;;8.90;4.50;;;;;;;11.37;96.71;100906.55;112837;1190;61055;-82
2021/09/26 03:41:48;;;;;;;9.40;5.40;;;;;;;11.38;96.67;100901.54;112672;1191;61078;-83
2021/09/26 03:44:15;;;;;;;7.90;4.70;;;;;;;11.36;96.70;100893.91;112670;1190;62027;-83
2021/09/26 03:46:41;;;;;;;9.00;5.00;;;;;;;11.37;96.99;100895.45;112581;1184;60944;-83
2021/09/26 03:49:08;;;;;;;9.50;5.40;;;;;;;11.33;96.15;100896.62;112609;1190;61093;-83
2021/09/26 03:51:34;;;;;;;10.20;5.80;;;;;;;11.31;96.48;100902.81;112599;1192;61030;-82
2021/09/26 03:54:01;;;;;;;10.30;5.40;;;;;;;11.30;96.72;100902.41;112576;1190;73658;-83
2021/09/26 03:56:27;;;;;;;8.90;5.80;;;;;;;11.30;96.97;100900.62;112553;1191;61065;-83
2021/09/26 03:58:54;;;;;;;7.10;5.00;;;;;;;11.30;96.96;100898.33;112617;1192;61078;-83
2021/09/26 04:01:20;;;;;;;9.40;5.50;;;;;;;11.31;97.07;100894.59;112622;1191;61036;-81
2021/09/26 04:03:47;;;;;;;8.80;5.50;;;;;;;11.29;96.99;100897.91;112521;1190;69676;-82
2021/09/26 04:06:14;;;;;;;8.20;6.00;;;;;;;11.27;96.93;100895.34;112756;1190;60949;-82
2021/09/26 04:08:40;;;;;;;9.30;5.30;;;;;;;11.24;96.51;100894.66;112592;1192;61625;-83
2021/09/26 04:11:08;;;;;;;9.00;5.10;;;;;;;11.21;96.63;100891.41;112569;1192;60946;-82
2021/09/26 04:13:36;;;;;;;8.40;4.50;;;;;;;11.20;97.21;100899.63;112597;1192;75606;-81
2021/09/26 04:16:03;;;;;;;8.70;5.30;;;;;;;11.19;96.98;100898.73;112762;1184;73179;-83
2021/09/26 04:18:29;;;;;;;7.90;4.70;;;;;;;11.17;96.92;100898.45;112644;1190;74781;-83
2021/09/26 04:20:56;;;;;;;8.60;5.40;;;;;;;11.16;97.03;100900.14;112546;1191;61049;-83
2021/09/26 04:23:22;;;;;;;5.90;4.50;;;;;;;11.14;96.89;100903.00;112502;1192;61055;-83
2021/09/26 04:25:49;;;;;;;8.90;5.40;;;;;;;11.13;97.28;100894.11;112713;1183;61087;-82
2021/09/26 04:28:15;;;;;;;7.50;4.80;;;;;;;11.15;97.93;100897.19;112715;1193;61033;-81
2021/09/26 04:30:42;;;;;;;8.70;5.10;;;;;;;11.18;97.92;100896.70;112704;1183;62333;-81
2021/09/26 04:33:09;;;;;;;8.00;6.00;;;;;;;11.20;98.05;100899.19;112687;1190;61023;-82
2021/09/26 04:35:35;;;;;;;9.50;5.40;;;;;;;11.19;97.87;100900.45;112762;1191;61053;-81
2021/09/26 04:38:02;;;;;;;9.90;5.80;;;;;;;11.21;97.91;100903.83;112718;1190;61023;-83
2021/09/26 04:40:28;;;;;;;7.40;4.90;;;;;;;11.20;97.63;100895.54;112659;1191;71119;-83
2021/09/26 04:42:55;;;;;;;8.30;5.80;;;;;;;11.20;97.51;100889.06;112723;1177;72482;-83
2021/09/26 04:45:21;;;;;;;10.60;5.00;;;;;;;11.21;98.01;100890.68;112721;1191;61007;-84
2021/09/26 04:47:48;;;;;;;7.70;5.30;;;;;;;11.21;97.63;100888.36;112656;1192;61039;-84
2021/09/26 04:50:14;;;;;;;9.30;5.20;;;;;;;11.19;97.52;100886.84;112692;1191;61042;-82
2021/09/26 04:52:41;;;;;;;9.80;5.50;;;;;;;11.20;97.86;100880.05;112696;1192;71051;-81
2021/09/26 04:55:08;;;;;;;7.20;4.90;;;;;;;11.21;97.83;100885.04;112748;1193;71804;-82
2021/09/26 04:57:35;;;;;;;7.70;5.50;;;;;;;11.21;97.97;100879.04;112772;1190;62642;-83
2021/09/26 05:00:05;;;;;;;7.70;4.80;;;;;;;11.21;98.21;100881.05;112674;1177;61205;-83
2021/09/26 05:02:32;;;;;;;7.70;4.90;;;;;;;11.24;98.50;100879.41;112649;1192;74382;-82
2021/09/26 05:04:58;;;;;;;7.40;6.00;;;;;;;11.26;98.60;100884.40;112775;1191;72299;-83
2021/09/26 05:07:25;;;;;;;7.90;5.60;;;;;;;11.28;98.53;100892.33;112819;1193;72912;-83
2021/09/26 05:09:52;;;;;;;12.60;7.40;;;;;;;11.31;98.79;100893.05;113157;1192;61735;-84
2021/09/26 05:12:19;;;;;;;12.30;6.00;;;;;;;11.33;98.50;100890.25;114992;1190;59943;-84
2021/09/26 05:14:46;;;;;;;14.90;7.80;;;;;;;11.33;98.54;100887.32;115942;1190;74601;-83
2021/09/26 05:17:12;;;;;;;9.50;5.40;;;;;;;11.35;98.44;100894.21;113261;1192;72067;-83
2021/09/26 05:19:39;;;;;;;10.00;4.80;;;;;;;11.35;98.09;100890.70;112856;1192;71541;-83
2021/09/26 05:22:06;;;;;;;7.10;4.90;;;;;;;11.35;98.50;100891.70;112820;1191;61048;-83
2021/09/26 05:24:33;;;;;;;6.90;4.90;;;;;;;11.39;98.67;100896.63;112821;1192;61039;-82
2021/09/26 05:26:59;;;;;;;9.70;5.10;;;;;;;11.39;98.18;100894.98;112807;1192;74427;-82
2021/09/26 05:29:26;;;;;;;11.70;5.70;;;;;;;11.41;98.57;100894.79;112664;1191;61061;-82
2021/09/26 05:31:52;;;;;;;7.80;5.40;;;;;;;11.45;98.80;100887.23;112646;1192;61161;-83
2021/09/26 05:34:19;;;;;;;8.80;4.80;;;;;;;11.48;98.45;100892.49;112619;1190;62214;-82
2021/09/26 05:36:46;;;;;;;7.60;4.60;;;;;;;11.52;98.90;100895.15;112658;1177;61964;-83
2021/09/26 05:39:12;;;;;;;14.30;5.80;;;;;;;11.57;98.77;100894.23;112646;1192;60950;-82
2021/09/26 05:41:39;;;;;;;9.80;5.20;;;;;;;11.60;98.46;100890.84;112739;1190;61061;-81
2021/09/26 05:44:05;;;;;;;11.40;5.60;;;;;;;11.61;98.29;100891.92;112652;1190;73580;-82
2021/09/26 05:46:32;;;;;;;7.30;4.40;;;;;;;11.63;98.46;100890.79;112638;1190;61972;-81
2021/09/26 05:48:59;;;;;;;7.80;5.00;;;;;;;11.65;98.88;100885.14;113368;1190;60975;-83
2021/09/26 05:51:25;;;;;;;9.20;5.10;;;;;;;11.69;99.16;100883.56;113481;1190;75754;-82
2021/09/26 05:53:52;;;;;;;11.10;5.40;;;;;;;11.76;99.49;100882.75;112856;1191;61020;-82
2021/09/26 05:56:18;;;;;;;10.90;6.40;;;;;;;11.86;99.75;100882.74;112777;1193;60960;-83
2021/09/26 05:58:45;;;;;;;12.30;5.50;;;;;;;11.96;99.84;100883.89;112669;1191;61579;-82
2021/09/26 06:01:11;;;;;;;12.60;5.40;;;;;;;12.07;99.79;100881.23;112720;1193;61035;-83
2021/09/26 06:03:39;;;;;;;8.90;5.50;;;;;;;12.18;99.79;100883.02;112677;1193;75587;-82
2021/09/26 06:06:05;;;;;;;8.80;4.80;;;;;;;12.30;99.46;100882.94;112645;1190;70990;-83
2021/09/26 06:08:32;;;;;;;8.20;5.00;;;;;;;12.41;99.20;100882.98;112709;1191;61004;-82
2021/09/26 06:10:58;;;;;;;9.50;4.80;;;;;;;12.54;99.29;100878.80;112727;1190;60984;-84
2021/09/26 06:13:25;;;;;;;10.30;5.20;;;;;;;12.67;98.74;100877.63;112790;1190;61825;-83
2021/09/26 06:15:52;;;;;;;13.10;6.30;;;;;;;12.77;98.04;100882.26;112582;1192;74587;-84
2021/09/26 06:18:19;;;;;;;7.30;4.60;;;;;;;12.87;97.39;100883.58;112716;1190;71024;-83
2021/09/26 06:20:47;;;;;;;10.80;4.80;;;;;;;12.97;97.13;100880.80;112597;1192;73142;-82
2021/09/26 06:23:14;;;;;;;8.40;5.00;;;;;;;13.06;97.01;100877.55;112703;1192;61042;-81
2021/09/26 06:25:41;;;;;;;8.50;4.30;;;;;;;13.15;96.40;100880.96;112862;1191;61058;-82
2021/09/26 06:28:07;;;;;;;6.30;3.90;;;;;;;13.17;95.47;100877.92;112831;1190;60966;-82
2021/09/26 06:30:36;;;;;;;8.30;3.90;;;;;;;13.20;95.22;100877.42;112624;1190;71078;-82
2021/09/26 06:33:04;;;;;;;8.80;4.80;;;;;;;13.23;95.12;100876.59;113081;1183;72832;-81
2021/09/26 06:38:15;;;;;;;11.80;5.30;;;;;;;13.38;95.59;100869.40;115876;1191;61580;-77
2021/09/26 06:40:42;;;;;;;7.80;4.00;;;;;;;13.50;95.69;100869.56;115818;1192;73682;-77
2021/09/26 06:43:09;;;;;;;7.80;4.90;;;;;;;13.64;95.54;100873.02;115892;1191;59001;-77
2021/09/26 06:45:35;;;;;;;7.50;4.60;;;;;;;13.80;95.47;100872.71;115887;1192;73461;-77
2021/09/26 06:48:02;;;;;;;9.20;4.60;;;;;;;13.96;95.20;100871.91;115748;1192;61887;-77
2021/09/26 06:50:29;;;;;;;7.30;4.60;;;;;;;14.12;94.78;100871.20;115640;1192;60401;-77
2021/09/26 06:52:55;;;;;;;8.00;4.70;;;;;;;14.25;94.13;100874.02;115949;1192;58958;-77
2021/09/26 06:55:22;;;;;;;6.40;3.80;;;;;;;14.38;93.57;100874.39;115890;1191;58911;-77
2021/09/26 06:57:48;;;;;;;8.80;4.20;;;;;;;14.47;93.11;100873.58;115968;1192;59008;-77
2021/09/26 07:00:15;;;;;;;7.50;4.50;;;;;;;14.59;93.00;100877.33;115791;1191;59399;-77
2021/09/26 07:02:43;;;;;;;4.60;3.60;;;;;;;14.70;92.50;100873.09;115886;1191;60473;-77
2021/09/26 07:05:11;;;;;;;6.30;4.20;;;;;;;14.83;92.24;100875.83;115913;1192;75692;-77
2021/09/26 07:07:38;;;;;;;7.30;3.00;;;;;;;14.95;91.23;100885.20;115804;1192;71024;-78
2021/09/26 07:10:05;;;;;;;6.90;3.60;;;;;;;15.01;90.21;100893.36;115815;1192;72808;-78
2021/09/26 07:12:32;;;;;;;7.50;4.60;;;;;;;15.04;89.68;100894.73;115948;1191;62016;-78
2021/09/26 07:15:01;;;;;;;6.70;4.10;;;;;;;15.11;89.92;100894.05;115985;1191;58656;-77
2021/09/26 07:17:29;;;;;;;6.40;3.80;;;;;;;15.17;89.21;100890.17;115735;1192;75950;-77
2021/09/26 07:19:55;;;;;;;5.30;3.60;;;;;;;15.23;89.37;100895.02;115956;1192;71230;-77
2021/09/26 07:22:25;;;;;;;4.50;2.90;;;;;;;15.27;89.18;100893.30;115855;1192;59061;-77
2021/09/26 07:24:53;;;;;;;5.40;3.30;;;;;;;15.32;89.29;100895.57;115901;1192;61950;-78
2021/09/26 07:27:21;;;;;;;5.40;2.80;;;;;;;15.37;89.40;100895.54;115911;1192;60238;-78
2021/09/26 07:29:56;;;;;;;5.30;3.00;;;;;;;15.41;88.80;100895.51;115962;1184;75895;-78
2021/09/26 07:32:54;;;;;;;7.70;4.60;;;;;;;15.51;88.92;100903.05;115834;1192;70578;-78
2021/09/26 07:35:20;;;;;;;6.10;3.70;;;;;;;15.60;88.98;100901.80;115962;1192;73379;-78
2021/09/26 07:37:47;;;;;;;6.10;4.30;;;;;;;15.74;89.09;100902.88;115924;1192;60632;-78
2021/09/26 07:40:14;;;;;;;5.40;3.60;;;;;;;15.88;88.80;100902.23;115733;1192;60935;-78
2021/09/26 07:42:40;;;;;;;5.60;3.30;;;;;;;15.99;87.90;100900.85;115956;1192;75673;-78
2021/09/26 07:45:10;;;;;;;3.80;2.80;;;;;;;16.10;87.13;100903.64;115986;1192;72188;-79
2021/09/26 07:47:37;;;;;;;6.10;3.70;;;;;;;16.22;87.20;100906.81;115925;1192;71291;-78
2021/09/26 07:50:05;;;;;;;8.10;4.20;;;;;;;16.37;86.92;100902.68;115649;1192;61174;-78
2021/09/26 07:52:32;;;;;;;6.20;2.30;;;;;;;16.56;86.47;100901.45;115741;1192;59919;-78
2021/09/26 07:54:58;;;;;;;4.30;3.10;;;;;;;16.76;84.99;100903.92;115885;1192;74415;-78
2021/09/26 07:57:25;;;;;;;4.30;3.10;;;;;;;16.96;84.82;100909.20;115914;1192;59775;-78
2021/09/26 07:59:52;;;;;;;4.60;2.80;;;;;;;17.10;83.98;100909.85;115913;1192;72683;-79
2021/09/26 08:02:19;;;;;;;5.80;3.30;;;;;;;17.22;83.81;100910.04;115952;1191;61926;-78
2021/09/26 08:04:46;;;;;;;6.40;3.60;;;;;;;17.33;83.71;100907.19;115935;1191;61068;-78
2021/09/26 08:07:25;;;;;;;4.20;2.30;;;;;;;17.42;83.73;100905.06;115971;1192;74633;-78
2021/09/26 08:10:04;;;;;;;6.10;3.80;;;;;;;17.46;82.77;100905.21;115603;1192;71922;-78
2021/09/26 08:12:30;;;;;;;5.60;3.30;;;;;;;17.49;82.86;100907.41;115971;1191;72672;-78
2021/09/26 08:15:16;;;;;;;7.00;3.50;;;;;;;17.53;83.06;100911.33;115792;1192;61974;-77
2021/09/26 08:17:50;;;;;;;4.70;2.10;;;;;;;17.59;83.13;100912.85;115590;1192;59323;-77
2021/09/26 08:20:17;;;;;;;8.40;3.20;;;;;;;17.65;83.26;100913.60;115757;1192;74657;-77
2021/09/26 08:22:44;;;;;;;5.00;2.50;;;;;;;17.81;83.63;100906.31;115928;1191;71173;-77
2021/09/26 08:25:14;;;;;;;8.50;3.10;;;;;;;18.01;83.05;100905.64;115923;1192;72603;-77
2021/09/26 08:27:41;;;;;;;3.30;2.30;;;;;;;18.20;82.76;100895.56;115881;1192;61684;-77
2021/09/26 08:30:09;;;;;;;4.00;2.20;;;;;;;18.41;82.12;100886.33;115869;1183;61343;-77
2021/09/26 08:32:37;;;;;;;2.20;1.60;;;;;;;18.64;80.77;100885.38;115959;1192;75588;-78
2021/09/26 08:35:06;;;;;;;3.40;1.90;;;;;;;18.81;77.57;100885.74;115945;1191;72070;-78
2021/09/26 08:37:36;;;;;;;2.80;1.90;;;;;;;18.94;75.40;100889.15;115599;1192;74347;-77
2021/09/26 08:40:04;;;;;;;3.90;2.30;;;;;;;19.01;74.63;100887.98;115650;1192;61096;-77
2021/09/26 08:42:33;;;;;;;4.50;2.00;;;;;;;19.13;73.59;100891.80;115945;1192;60409;-77
2021/09/26 08:45:01;;;;;;;4.10;2.40;;;;;;;19.19;72.32;100889.58;115791;1192;74648;-77
2021/09/26 08:47:28;;;;;;;3.20;1.90;;;;;;;19.26;72.18;100881.84;115985;1192;72054;-77
2021/09/26 08:49:55;;;;;;;2.40;1.80;;;;;;;19.44;72.97;100885.96;115947;1191;72573;-78
2021/09/26 08:52:22;;;;;;;2.80;1.90;;;;;;;19.66;71.78;100884.86;115941;1192;62602;-78
2021/09/26 08:54:49;;;;;;;3.80;1.80;;;;;;;19.88;70.95;100882.01;115785;1192;60018;-79
2021/09/26 08:57:16;;;;;;;3.00;2.00;;;;;;;20.08;69.63;100887.48;115945;1192;59980;-78
2021/09/26 08:59:42;;;;;;;2.90;1.50;;;;;;;20.21;68.94;100889.99;115989;1192;71280;-78
2021/09/26 09:02:09;;;;;;;4.50;2.50;;;;;;;20.33;67.78;100898.11;115922;1191;73498;-77
2021/09/26 09:04:38;;;;;;;6.30;1.90;;;;;;;20.46;68.67;100900.29;115883;1192;60678;-78
2021/09/26 09:07:07;;;;;;;3.00;2.10;;;;;;;20.54;67.41;100903.87;115966;1191;61269;-78
2021/09/26 09:10:01;;;;;;;3.80;2.50;;;;;;;20.58;67.09;100901.55;115758;1192;74658;-78
2021/09/26 09:12:31;;;;;;;2.60;2.10;;;;;;;20.68;66.82;100898.83;115902;1192;72235;-78
2021/09/26 09:15:07;;;;;;;3.40;2.00;;;;;;;20.76;66.67;100893.33;115924;1191;73855;-78
2021/09/26 09:17:37;;;;;;;3.60;2.30;;;;;;;20.84;65.98;100893.76;115914;1192;59525;-78
2021/09/26 09:20:42;;;;;;;3.60;2.10;;;;;;;20.91;66.20;100887.58;115937;1191;61574;-77
2021/09/26 09:23:24;;;;;;;3.50;2.10;;;;;;;21.04;66.27;100885.95;115640;1192;74949;-78
2021/09/26 09:25:53;;;;;;;3.60;2.30;;;;;;;21.14;65.65;100878.02;115954;1192;71066;-78
2021/09/26 09:28:23;;;;;;;3.00;1.80;;;;;;;21.19;64.81;100874.86;115931;1192;72405;-79
2021/09/26 09:31:09;;;;;;;2.50;1.90;;;;;;;21.26;64.83;100873.11;115795;1192;60513;-79
2021/09/26 09:33:41;;;;;;;3.60;2.00;;;;;;;21.40;65.48;100868.98;116038;1191;60243;-80
2021/09/26 09:36:28;;;;;;;3.20;2.00;;;;;;;21.53;64.29;100872.59;115953;1192;75946;-79
2021/09/26 09:38:57;;;;;;;3.40;2.30;;;;;;;21.67;64.20;100873.52;116028;1192;72070;-79
2021/09/26 09:41:42;;;;;;;2.40;1.80;;;;;;;21.79;63.76;100870.74;115860;1192;72503;-80
2021/09/26 09:44:12;;;;;;;3.50;2.30;;;;;;;21.87;62.67;100859.91;116048;1192;60663;-81
2021/09/26 09:46:45;;;;;;;4.20;2.30;;;;;;;21.97;62.66;100856.35;115948;1191;61596;-80
2021/09/26 09:49:22;;;;;;;10.30;2.10;;;;;;;22.09;62.88;100853.33;115895;1192;74875;-80
2021/09/26 09:51:59;;;;;;;3.20;2.30;;;;;;;22.24;62.77;100852.48;116004;1191;72155;-80
2021/09/26 09:54:33;;;;;;;5.50;2.30;;;;;;;22.37;62.18;100854.84;116033;1191;73934;-80
2021/09/26 09:57:18;;;;;;;6.00;2.60;;;;;;;22.47;61.28;100851.88;116109;1192;60278;-79
2021/09/26 09:59:47;;;;;;;5.00;2.10;;;;;;;22.56;61.76;100848.34;115891;1192;59959;-80
2021/09/26 10:02:14;;;;;;;5.40;2.70;;;;;;;22.66;60.64;100847.91;115993;1192;77020;-80
2021/09/26 10:04:44;;;;;;;5.40;2.50;;;;;;;22.73;61.06;100847.84;116027;1192;71762;-80
2021/09/26 10:07:20;;;;;;;4.60;2.40;;;;;;;22.79;60.29;100844.23;116086;1192;72649;-80
2021/09/26 10:09:49;;;;;;;4.40;2.00;;;;;;;22.87;60.10;100847.95;116038;1191;61366;-80
2021/09/26 10:12:22;;;;;;;4.00;2.40;;;;;;;22.94;60.54;100855.11;115871;1191;60349;-80
2021/09/26 10:14:51;;;;;;;4.50;2.50;;;;;;;23.02;59.15;100854.36;115907;1192;74645;-80
2021/09/26 10:17:18;;;;;;;4.00;2.30;;;;;;;23.12;59.25;100855.08;116003;1192;71076;-80
2021/09/26 10:19:45;;;;;;;3.00;1.90;;;;;;;23.23;59.14;100861.29;115957;1192;75533;-80
2021/09/26 10:22:15;;;;;;;3.60;2.50;;;;;;;23.27;58.40;100859.11;115964;1192;61027;-80
2021/09/26 10:24:57;;;;;;;6.40;2.30;;;;;;;23.36;59.35;100858.01;115898;1192;60611;-80
2021/09/26 10:27:30;;;;;;;2.90;2.00;;;;;;;23.48;58.58;100855.25;116001;1192;75672;-80
2021/09/26 10:30:05;;;;;;;4.90;2.70;;;;;;;23.61;59.22;100854.33;116025;1192;70580;-79
2021/09/26 10:32:32;;;;;;;4.60;2.80;;;;;;;23.74;57.70;100858.99;115988;1191;73990;-79
2021/09/26 10:35:00;;;;;;;5.20;2.60;;;;;;;23.84;57.70;100853.40;116009;1191;61297;-80
2021/09/26 10:37:28;;;;;;;3.90;2.90;;;;;;;23.91;57.36;100848.20;116023;1191;60065;-80
2021/09/26 10:39:55;;;;;;;3.20;2.40;;;;;;;24.00;57.52;100852.77;115877;1192;74730;-80
2021/09/26 10:42:24;;;;;;;3.90;2.40;;;;;;;24.14;57.48;100849.38;115991;1191;70945;-80
2021/09/26 10:44:54;;;;;;;5.00;2.20;;;;;;;24.32;57.24;100847.48;115935;1192;73525;-80
2021/09/26 10:47:23;;;;;;;4.10;2.60;;;;;;;24.52;55.93;100848.25;115990;1192;60012;-78
2021/09/26 10:50:15;;;;;;;3.40;2.50;;;;;;;24.61;54.87;100846.23;115850;1192;60004;-79
2021/09/26 10:52:47;;;;;;;3.70;2.60;;;;;;;24.65;54.01;100849.95;115969;1192;75876;-79
2021/09/26 10:57:52;;;;;;;6.10;2.70;;;;;;;24.99;53.37;100849.83;116012;1191;72573;-79
2021/09/26 11:00:30;;;;;;;5.30;3.20;;;;;;;25.06;51.88;100854.74;115910;1191;60711;-79
2021/09/26 11:03:10;;;;;;;4.00;2.70;;;;;;;25.09;51.95;100847.31;115998;1191;59994;-79
2021/09/26 11:06:04;;;;;;;4.20;2.60;;;;;;;25.18;52.13;100847.89;115991;1191;74534;-80
2021/09/26 11:08:43;;;;;;;3.90;2.80;;;;;;;25.27;51.80;100850.98;115845;1192;72084;-80
2021/09/26 11:11:30;;;;;;;5.20;2.50;;;;;;;25.28;51.52;100850.25;115765;1193;73075;-79
2021/09/26 11:13:57;;;;;;;5.80;3.30;;;;;;;25.19;51.21;100850.98;115788;1192;60027;-79
2021/09/26 11:16:49;;;;;;;5.20;2.90;;;;;;;25.13;51.09;100850.14;115656;1192;61313;-79
2021/09/26 11:19:16;;;;;;;7.60;3.00;;;;;;;25.02;51.39;100845.87;115659;1192;74812;-79
2021/09/26 11:21:43;;;;;;;7.70;2.80;;;;;;;25.06;52.32;100838.29;115830;1192;71191;-79
2021/09/26 11:24:27;;;;;;;4.80;2.40;;;;;;;25.14;52.50;100835.16;115861;1192;58937;-80
2021/09/26 11:27:09;;;;;;;;;;;;;;;25.26;52.05;100837.86;115671;1192;60305;-79
2021/09/26 11:29:50;;;;;;;4.00;2.50;;;;;;;25.32;51.94;100832.22;115729;1192;59724;-79
2021/09/26 11:32:16;;;;;;;6.50;3.50;;;;;;;25.42;51.56;100834.02;115877;1192;75594;-79
2021/09/26 11:34:51;;;;;;;5.50;3.20;;;;;;;25.47;50.56;100836.58;115837;1192;58856;-79
2021/09/26 11:37:42;;;;;;;6.00;3.30;;;;;;;25.43;50.38;100845.80;115826;1192;73626;-80